createdAt,value
2018-04-29T04:45:26.331Z,34.47
2018-04-29T04:47:53.886Z,31.20
2018-04-29T04:50:21.502Z,32.57
2018-04-29T04:52:49.114Z,31.90
2018-04-29T04:55:16.786Z,30.23
2018-04-29T04:57:44.337Z,31.23
2018-04-29T05:00:11.986Z,33.97
2018-04-29T05:02:39.546Z,31.30
2018-04-29T05:05:07.094Z,24.40
2018-04-29T05:07:34.682Z,28.30
2018-04-29T05:10:02.239Z,27.67
2018-04-29T05:12:29.833Z,28.23
2018-04-29T05:14:57.389Z,24.37
2018-04-29T05:17:25.065Z,22.30
2018-04-29T05:19:52.621Z,20.97
2018-04-29T05:22:20.177Z,26.20
2018-04-29T05:24:47.846Z,27.03
2018-04-29T05:27:15.469Z,18.80
2018-04-29T05:29:43.062Z,21.33
2018-04-29T05:32:10.731Z,16.97
2018-04-29T05:34:38.281Z,18.53
2018-04-29T05:37:05.829Z,18.97
2018-04-29T05:39:33.404Z,26.20
2018-04-29T05:42:01.071Z,24.37
2018-04-29T05:44:28.627Z,19.53
2018-04-29T05:46:56.182Z,25.07
2018-04-29T05:49:23.854Z,22.30
2018-04-29T05:51:51.417Z,20.77
2018-04-29T05:54:19.023Z,20.80
2018-04-29T05:56:46.630Z,25.97
2018-04-29T05:59:14.219Z,24.77
2018-04-29T06:01:41.775Z,14.27
2018-04-29T06:04:09.386Z,16.90
2018-04-29T06:06:37.226Z,27.73
2018-04-29T06:09:05.718Z,13.13
2018-04-29T06:11:33.383Z,17.03
2018-04-29T06:14:01.042Z,13.90
2018-04-29T06:16:28.558Z,12.93
2018-04-29T06:18:56.978Z,14.60
2018-04-29T06:21:24.580Z,13.90
2018-04-29T06:23:52.121Z,16.23
2018-04-29T06:26:19.757Z,13.90
2018-04-29T06:28:47.367Z,10.60
2018-04-29T06:31:14.907Z,8.83
2018-04-29T06:33:42.552Z,9.43
2018-04-29T06:36:10.093Z,9.23
2018-04-29T06:38:37.755Z,11.00
2018-04-29T06:41:05.306Z,10.93
2018-04-29T06:43:32.868Z,13.63
2018-04-29T06:46:00.481Z,11.25
2018-04-29T06:48:28.886Z,8.27
2018-04-29T06:50:56.492Z,9.37
2018-04-29T06:53:24.098Z,10.73
2018-04-29T06:55:51.733Z,11.97
2018-04-29T06:58:19.285Z,13.07
2018-04-29T07:00:46.903Z,8.00
2018-04-29T07:03:14.449Z,12.37
2018-04-29T07:05:42.054Z,11.17
2018-04-29T07:08:09.672Z,13.40
2018-04-29T07:10:37.334Z,9.77
2018-04-29T07:13:04.946Z,10.57
2018-04-29T07:15:32.533Z,10.93
2018-04-29T07:18:00.231Z,12.65
2018-04-29T07:20:27.770Z,17.83
2018-04-29T07:22:55.369Z,21.13
2018-04-29T07:25:22.958Z,12.17
2018-04-29T07:27:50.597Z,12.87
2018-04-29T07:30:19.019Z,11.13
2018-04-29T07:32:46.565Z,14.43
2018-04-29T07:35:14.240Z,13.53
2018-04-29T07:37:41.852Z,11.60
2018-04-29T07:40:09.492Z,13.30
2018-04-29T07:42:37.083Z,12.23
2018-04-29T07:45:04.743Z,12.73
2018-04-29T07:47:32.342Z,11.90
2018-04-29T07:49:59.998Z,10.57
2018-04-29T07:52:27.581Z,10.43
2018-04-29T07:54:55.268Z,14.50
2018-04-29T07:57:22.979Z,14.07
2018-04-29T07:59:50.588Z,12.47
2018-04-29T08:02:18.654Z,15.27
2018-04-29T08:04:46.202Z,12.17
2018-04-29T08:07:13.842Z,10.57
2018-04-29T08:09:41.487Z,13.38
2018-04-29T08:12:09.086Z,13.27
2018-04-29T08:14:36.693Z,13.10
2018-04-29T08:17:04.242Z,13.50
2018-04-29T08:19:31.830Z,16.95
2018-04-29T08:21:59.866Z,14.40
2018-04-29T08:24:27.478Z,18.23
2018-04-29T08:26:55.118Z,13.35
2018-04-29T08:29:22.665Z,15.65
2018-04-29T08:31:50.996Z,14.80
2018-04-29T08:34:18.538Z,12.60
2018-04-29T08:36:46.213Z,21.73
2018-04-29T08:39:13.789Z,16.52
2018-04-29T08:41:42.378Z,17.42
2018-04-29T08:44:10.331Z,22.58
2018-04-29T08:46:37.874Z,20.70
2018-04-29T08:49:05.477Z,15.07
2018-04-29T08:51:33.903Z,8.70
2018-04-29T08:54:01.502Z,8.05
2018-04-29T08:56:29.056Z,10.57
2018-04-29T08:58:56.623Z,8.82
2018-04-29T09:01:24.802Z,7.45
2018-04-29T09:03:52.512Z,9.05
2018-04-29T09:06:20.046Z,7.65
2018-04-29T09:08:47.836Z,7.18
2018-04-29T09:11:15.442Z,5.68
2018-04-29T09:13:42.986Z,7.03
2018-04-29T09:16:10.681Z,6.00
2018-04-29T09:18:38.299Z,8.07
2018-04-29T09:21:05.857Z,7.18
2018-04-29T09:23:33.456Z,6.80
2018-04-29T09:26:01.139Z,7.53
2018-04-29T09:28:28.738Z,5.18
2018-04-29T09:30:56.428Z,4.22
2018-04-29T09:33:24.095Z,11.25
2018-04-29T09:35:52.347Z,2.92
2018-04-29T09:38:19.942Z,4.90
2018-04-29T09:40:47.514Z,3.87
2018-04-29T09:43:15.133Z,3.92
2018-04-29T09:45:42.682Z,6.20
2018-04-29T09:48:10.291Z,6.40
2018-04-29T09:50:38.040Z,4.03
2018-04-29T09:53:05.602Z,4.28
2018-04-29T09:55:33.150Z,3.47
2018-04-29T09:58:00.911Z,4.97
2018-04-29T10:00:28.521Z,6.87
2018-04-29T10:03:11.726Z,3.22
2018-04-29T10:05:39.285Z,4.03
2018-04-29T10:08:07.830Z,4.35
2018-04-29T10:10:35.370Z,4.40
2018-04-29T10:13:02.960Z,3.90
2018-04-29T10:15:30.568Z,4.68
2018-04-29T10:17:58.169Z,7.93
2018-04-29T10:20:25.718Z,5.03
2018-04-29T10:22:53.323Z,5.00
2018-04-29T10:25:20.917Z,6.07
2018-04-29T10:27:48.458Z,4.25
2018-04-29T10:30:16.127Z,6.45
2018-04-29T10:32:44.545Z,4.60
2018-04-29T10:35:12.041Z,4.70
2018-04-29T10:37:39.642Z,2.80
2018-04-29T10:40:07.229Z,7.03
2018-04-29T10:42:34.846Z,4.10
2018-04-29T10:45:02.505Z,5.00
2018-04-29T10:47:31.049Z,3.10
2018-04-29T10:49:58.638Z,3.45
2018-04-29T10:52:26.231Z,2.45
2018-04-29T10:54:53.846Z,9.55
2018-04-29T10:57:21.394Z,15.07
2018-04-29T10:59:48.964Z,6.50
2018-04-29T11:02:16.642Z,9.52
2018-04-29T11:04:46.255Z,8.38
2018-04-29T11:07:13.798Z,5.93
2018-04-29T11:09:41.407Z,6.75
2018-04-29T11:12:09.021Z,11.75
2018-04-29T11:14:36.589Z,4.10
2018-04-29T11:17:05.142Z,18.35
2018-04-29T11:19:32.687Z,5.70
2018-04-29T11:22:00.282Z,6.62
2018-04-29T11:24:27.943Z,4.62
2018-04-29T11:26:56.314Z,6.65
2018-04-29T11:29:24.924Z,7.53
2018-04-29T11:31:52.526Z,5.32
2018-04-29T11:34:20.170Z,6.62
2018-04-29T11:36:48.596Z,6.07
2018-04-29T11:39:18.050Z,7.90
2018-04-29T11:41:45.796Z,8.60
2018-04-29T11:44:13.403Z,5.12
2018-04-29T11:46:41.974Z,4.72
2018-04-29T11:49:09.576Z,5.07
2018-04-29T11:51:37.126Z,3.50
2018-04-29T11:54:05.574Z,5.93
2018-04-29T11:56:33.186Z,2.58
2018-04-29T11:59:00.738Z,4.82
2018-04-29T12:01:28.389Z,7.93
2018-04-29T12:03:56.006Z,5.05
2018-04-29T12:06:23.559Z,2.80
2018-04-29T12:08:51.155Z,10.15
2018-04-29T12:11:18.829Z,5.50
2018-04-29T12:13:46.439Z,13.52
2018-04-29T12:16:13.986Z,7.72
2018-04-29T12:18:41.577Z,10.93
2018-04-29T12:21:10.046Z,3.72
2018-04-29T12:23:38.470Z,5.43
2018-04-29T12:26:06.023Z,19.58
2018-04-29T12:28:33.694Z,9.13
2018-04-29T12:31:02.163Z,19.60
2018-04-29T12:33:29.767Z,11.25
2018-04-29T12:35:57.306Z,7.30
2018-04-29T12:38:24.890Z,7.80
2018-04-29T12:40:52.446Z,11.20
2018-04-29T12:43:20.041Z,9.60
2018-04-29T12:45:47.626Z,9.25
2018-04-29T12:48:15.215Z,10.85
2018-04-29T12:50:42.818Z,13.55
2018-04-29T12:53:10.362Z,6.90
2018-04-29T12:55:37.967Z,9.65
2018-04-29T12:58:05.563Z,7.40
2018-04-29T13:00:33.105Z,5.10
2018-04-29T13:03:00.649Z,6.87
2018-04-29T13:05:28.300Z,5.30
2018-04-29T13:07:55.902Z,6.40
2018-04-29T13:10:24.037Z,4.82
2018-04-29T13:12:52.694Z,4.65
2018-04-29T13:15:20.354Z,3.58
2018-04-29T13:17:48.413Z,4.10
2018-04-29T13:20:16.092Z,6.60
2018-04-29T13:22:44.929Z,3.62
2018-04-29T13:25:13.060Z,7.87
2018-04-29T13:27:40.738Z,8.02
2018-04-29T13:30:09.326Z,13.32
2018-04-29T13:32:37.071Z,11.80
2018-04-29T13:35:04.681Z,7.00
2018-04-29T13:37:32.331Z,10.90
2018-04-29T13:40:00.904Z,7.22
2018-04-29T13:42:29.279Z,6.47
2018-04-29T13:44:57.986Z,15.07
2018-04-29T13:47:26.875Z,3.80
2018-04-29T13:49:54.478Z,4.47
2018-04-29T13:52:22.102Z,7.32
2018-04-29T13:54:49.658Z,7.43
2018-04-29T13:57:17.200Z,7.10
2018-04-29T13:59:44.811Z,7.12
2018-04-29T14:02:13.122Z,6.93
2018-04-29T14:04:40.779Z,5.90
2018-04-29T14:07:09.252Z,19.17
2018-04-29T14:09:37.748Z,5.35
2018-04-29T14:12:06.255Z,6.12
2018-04-29T14:14:33.802Z,7.62
2018-04-29T14:17:02.035Z,3.92
2018-04-29T14:19:29.665Z,6.18
2018-04-29T14:21:58.049Z,4.43
2018-04-29T14:24:26.738Z,5.97
2018-04-29T14:26:54.455Z,5.85
2018-04-29T14:29:22.067Z,7.68
2018-04-29T14:31:49.801Z,10.90
2018-04-29T14:34:17.495Z,4.43
2018-04-29T14:36:45.034Z,3.90
2018-04-29T14:39:13.380Z,6.68
2018-04-29T14:41:40.930Z,5.25
2018-04-29T14:44:08.494Z,4.97
2018-04-29T14:46:36.126Z,2.92
2018-04-29T14:49:04.522Z,4.78
2018-04-29T14:51:32.063Z,6.80
2018-04-29T14:54:00.383Z,7.85
2018-04-29T14:56:28.742Z,6.90
2018-04-29T14:58:57.114Z,4.70
2018-04-29T15:01:25.308Z,10.05
2018-04-29T15:03:52.891Z,7.05
2018-04-29T15:06:21.499Z,7.28
2018-04-29T15:08:49.106Z,3.83
2018-04-29T15:11:16.856Z,7.45
2018-04-29T15:13:44.502Z,6.18
2018-04-29T15:16:13.069Z,8.60
2018-04-29T15:18:52.325Z,10.63
2018-04-29T15:21:19.870Z,7.22
2018-04-29T15:23:47.523Z,11.77
2018-04-29T15:26:15.673Z,10.73
2018-04-29T15:28:43.283Z,12.02
2018-04-29T15:31:11.805Z,10.13
2018-04-29T15:33:40.429Z,8.50
2018-04-29T15:36:07.984Z,10.90
2018-04-29T15:38:35.574Z,9.87
2018-04-29T15:41:03.249Z,18.05
2018-04-29T15:43:31.807Z,14.23
2018-04-29T15:45:59.359Z,12.90
2018-04-29T15:48:27.024Z,15.03
2018-04-29T15:50:55.513Z,15.47
2018-04-29T15:53:23.098Z,16.90
2018-04-29T15:55:50.746Z,13.07
2018-04-29T15:58:18.299Z,17.30
2018-04-29T16:00:45.901Z,19.87
2018-04-29T16:03:13.450Z,14.00
2018-04-29T16:05:41.088Z,8.50
2018-04-29T16:08:08.665Z,17.63
2018-04-29T16:10:36.718Z,12.13
2018-04-29T16:13:04.301Z,12.57
2018-04-29T16:15:32.050Z,21.77
2018-04-29T16:17:59.787Z,17.37
2018-04-29T16:20:27.354Z,6.60
2018-04-29T16:22:55.019Z,6.50
2018-04-29T16:25:23.518Z,7.87
2018-04-29T16:27:51.058Z,8.50
2018-04-29T16:30:18.701Z,5.87
2018-04-29T16:32:46.351Z,9.07
2018-04-29T16:35:14.705Z,8.27
2018-04-29T16:37:43.105Z,7.47
2018-04-29T16:40:10.692Z,5.30
2018-04-29T16:42:38.247Z,6.13
2018-04-29T16:45:05.899Z,5.75
2018-04-29T16:47:34.298Z,12.13
2018-04-29T16:50:02.155Z,8.10
2018-04-29T16:52:29.750Z,6.27
2018-04-29T16:54:57.350Z,7.00
2018-04-29T16:57:24.913Z,6.17
2018-04-29T16:59:52.934Z,9.00
2018-04-29T17:02:21.321Z,7.30
2018-04-29T17:04:49.721Z,11.67
2018-04-29T17:07:17.956Z,7.97
2018-04-29T17:09:45.686Z,5.17
2018-04-29T17:12:13.288Z,6.30
2018-04-29T17:14:42.358Z,5.70
2018-04-29T17:17:10.039Z,8.20
2018-04-29T17:19:37.615Z,8.30
2018-04-29T17:22:05.201Z,9.57
2018-04-29T17:24:32.752Z,10.87
2018-04-29T17:27:00.594Z,11.03
2018-04-29T17:29:28.256Z,11.87
2018-04-29T17:31:56.759Z,6.50
2018-04-29T17:34:25.638Z,6.13
2018-04-29T17:36:53.274Z,11.13
2018-04-29T17:39:21.694Z,6.63
2018-04-29T17:41:49.351Z,7.50
2018-04-29T17:44:16.955Z,8.47
2018-04-29T17:46:44.606Z,7.28
2018-04-29T17:49:12.316Z,7.83
2018-04-29T17:51:41.228Z,12.13
2018-04-29T17:54:09.847Z,6.10
2018-04-29T17:56:38.969Z,9.43
2018-04-29T17:59:06.507Z,7.97
2018-04-29T18:01:34.475Z,5.83
2018-04-29T18:04:02.109Z,7.57
2018-04-29T18:06:29.717Z,8.07
2018-04-29T18:08:58.810Z,7.40
2018-04-29T18:11:27.002Z,8.40
2018-04-29T18:13:58.483Z,5.63
2018-04-29T18:16:26.066Z,4.23
2018-04-29T18:18:53.608Z,6.90
2018-04-29T18:21:21.990Z,9.00
2018-04-29T18:23:49.537Z,6.43
2018-04-29T18:26:17.963Z,6.83
2018-04-29T18:28:45.658Z,4.97
2018-04-29T18:31:14.006Z,8.10
2018-04-29T18:33:41.614Z,7.70
2018-04-29T18:36:09.274Z,8.53
2018-04-29T18:38:36.885Z,6.83
2018-04-29T18:41:04.426Z,6.97
2018-04-29T18:43:32.038Z,5.07
2018-04-29T18:45:59.706Z,10.67
2018-04-29T18:48:27.346Z,6.63
2018-04-29T18:50:56.008Z,10.80
2018-04-29T18:53:24.513Z,14.63
2018-04-29T18:55:52.102Z,15.97
2018-04-29T18:58:19.726Z,10.73
2018-04-29T19:00:47.345Z,12.83
2018-04-29T19:03:15.991Z,11.90
2018-04-29T19:05:47.454Z,12.70
2018-04-29T19:08:15.062Z,11.40
2018-04-29T19:10:42.616Z,30.50
2018-04-29T19:13:11.018Z,8.47
2018-04-29T19:15:38.558Z,8.77
2018-04-29T19:18:06.159Z,7.13
2018-04-29T19:20:33.759Z,6.40
2018-04-29T19:23:01.368Z,7.07
2018-04-29T19:25:30.347Z,7.00
2018-04-29T19:28:00.115Z,6.07
2018-04-29T19:30:27.719Z,4.97
2018-04-29T19:32:57.427Z,7.80
2018-04-29T19:35:24.971Z,4.70
2018-04-29T19:37:53.179Z,5.17
2018-04-29T19:40:20.747Z,7.03
2018-04-29T19:42:49.027Z,3.83
2018-04-29T19:45:16.683Z,7.60
2018-04-29T19:47:44.230Z,5.73
2018-04-29T19:50:11.862Z,4.70
2018-04-29T19:52:39.434Z,5.13
2018-04-29T19:55:07.519Z,6.03
2018-04-29T19:57:35.507Z,6.10
2018-04-29T20:00:03.054Z,6.50
2018-04-29T20:02:31.114Z,6.07
2018-04-29T20:04:58.658Z,7.07
2018-04-29T20:07:26.202Z,5.20
2018-04-29T20:09:54.039Z,3.63
2018-04-29T20:12:21.582Z,6.57
2018-04-29T20:14:49.183Z,4.40
2018-04-29T20:17:18.026Z,6.73
2018-04-29T20:19:45.618Z,7.97
2018-04-29T20:22:13.698Z,3.47
2018-04-29T20:24:41.315Z,5.33
2018-04-29T20:27:08.922Z,6.23
2018-04-29T20:29:36.564Z,5.33
2018-04-29T20:32:04.202Z,5.87
2018-04-29T20:34:32.682Z,4.43
2018-04-29T20:37:00.222Z,5.53
2018-04-29T20:39:27.827Z,4.63
2018-04-29T20:41:55.455Z,4.50
2018-04-29T20:44:23.038Z,3.17
2018-04-29T20:46:50.641Z,5.77
2018-04-29T20:49:18.282Z,4.23
2018-04-29T20:51:45.825Z,4.33
2018-04-29T20:54:13.421Z,3.60
2018-04-29T20:56:40.967Z,6.23
2018-04-29T20:59:09.028Z,2.90
2018-04-29T21:01:36.641Z,4.70
2018-04-29T21:04:04.198Z,3.77
2018-04-29T21:06:31.935Z,6.73
2018-04-29T21:08:59.688Z,3.60
2018-04-29T21:11:27.290Z,4.77
2018-04-29T21:13:54.982Z,3.47
2018-04-29T21:16:23.338Z,3.43
2018-04-29T21:18:51.909Z,3.10
2018-04-29T21:21:19.446Z,3.63
2018-04-29T21:23:46.986Z,3.40
2018-04-29T21:26:14.576Z,5.43
2018-04-29T21:28:42.114Z,3.60
2018-04-29T21:31:09.725Z,4.40
2018-04-29T21:33:37.339Z,4.33
2018-04-29T21:36:04.941Z,5.50
2018-04-29T21:38:32.602Z,4.33
2018-04-29T21:41:00.146Z,5.20
2018-04-29T21:43:27.904Z,3.17
2018-04-29T21:45:55.514Z,4.90
2018-04-29T21:48:25.074Z,2.97
2018-04-29T21:50:52.616Z,3.10
2018-04-29T21:53:20.255Z,3.80
2018-04-29T21:55:47.802Z,3.57
2018-04-29T21:58:15.386Z,5.93
2018-04-29T22:00:42.983Z,3.27
2018-04-29T22:03:10.579Z,7.37
2018-04-29T22:05:38.125Z,4.03
2018-04-29T22:08:05.738Z,3.70
2018-04-29T22:10:33.286Z,4.03
2018-04-29T22:13:02.555Z,3.10
2018-04-29T22:15:30.210Z,4.37
2018-04-29T22:17:58.757Z,4.83
2018-04-29T22:20:26.371Z,3.67
2018-04-29T22:22:54.041Z,4.23
2018-04-29T22:25:21.642Z,6.23
2018-04-29T22:27:49.275Z,9.13
2018-04-29T22:30:16.814Z,6.03
2018-04-29T22:32:44.358Z,6.33
2018-04-29T22:35:11.955Z,4.47
2018-04-29T22:37:39.557Z,4.60
2018-04-29T22:40:08.090Z,4.83
2018-04-29T22:42:35.634Z,5.33
2018-04-29T22:45:03.183Z,4.60
2018-04-29T22:47:30.830Z,5.37
2018-04-29T22:49:58.474Z,4.63
2018-04-29T22:52:26.074Z,8.03
2018-04-29T22:54:53.621Z,4.47
2018-04-29T22:57:22.042Z,7.80
2018-04-29T22:59:49.616Z,3.20
2018-04-29T23:02:19.079Z,4.23
2018-04-29T23:04:46.689Z,5.27
2018-04-29T23:07:14.234Z,5.97
2018-04-29T23:09:42.802Z,4.47
2018-04-29T23:12:10.342Z,6.40
2018-04-29T23:14:37.984Z,4.13
2018-04-29T23:17:05.654Z,4.37
2018-04-29T23:19:34.049Z,3.10
2018-04-29T23:22:01.592Z,3.90
2018-04-29T23:24:29.188Z,5.90
2018-04-29T23:26:56.730Z,3.53
2018-04-29T23:29:24.270Z,4.07
2018-04-29T23:31:51.866Z,11.07
2018-04-29T23:34:19.410Z,5.43
2018-04-29T23:36:46.997Z,5.17
2018-04-29T23:39:14.538Z,4.07
2018-04-29T23:41:43.022Z,5.60
2018-04-29T23:44:10.607Z,6.53
2018-04-29T23:46:38.210Z,5.70
2018-04-29T23:49:05.864Z,4.07
2018-04-29T23:51:33.406Z,7.97
2018-04-29T23:54:01.042Z,3.93
2018-04-29T23:56:28.588Z,7.33
2018-04-29T23:58:56.240Z,7.87
